Time;durP1;ratioP1;P1;durP2;ratioP2;P2;SDS_P1;SDS_P2;PMS_P1;PMS_P2;Temp;Humidity;BMP_temperature;BMP_pressure;BME280_temperature;BME280_humidity;BME280_pressure;Samples;Min_cycle;Max_cycle;Signal;HPM_P1;HPM_P2
2021/01/16 00:02:11;;;;;;;30.55;16.30;;;;;;;-1.23;79.42;97420.03;5038093;28;20053;-74
2021/01/16 00:05:15;;;;;;;33.85;18.20;;;;;;;-1.24;79.21;97414.06;4952063;29;20047;-74
2021/01/16 00:07:58;;;;;;;32.72;17.17;;;;;;;-1.25;79.24;97411.59;5033007;28;20056;-74
2021/01/16 00:10:41;;;;;;;31.65;17.08;;;;;;;-1.26;79.11;97413.38;5051625;28;20049;-74
2021/01/16 00:13:18;;;;;;;30.27;17.13;;;;;;;-1.29;79.11;97408.44;5052641;28;20048;-74
2021/01/16 00:15:45;;;;;;;28.20;16.25;;;;;;;-1.32;78.91;97403.56;5049033;28;20072;-74
2021/01/16 00:18:14;;;;;;;26.75;16.30;;;;;;;-1.31;79.07;97407.75;5055462;28;20048;-74
2021/01/16 00:20:43;;;;;;;31.75;16.90;;;;;;;-1.34;79.33;97405.44;5050876;28;20049;-74
2021/01/16 00:23:10;;;;;;;31.10;16.17;;;;;;;-1.40;79.06;97405.91;5055100;28;20049;-73
2021/01/16 00:25:36;;;;;;;30.42;15.52;;;;;;;-1.41;78.99;97399.09;5055423;28;20048;-74
2021/01/16 00:28:04;;;;;;;33.33;17.88;;;;;;;-1.46;79.19;97404.59;5055129;28;20059;-74
2021/01/16 00:30:36;;;;;;;36.60;17.05;;;;;;;-1.54;78.96;97394.09;5019079;28;20052;-74
2021/01/16 00:33:03;;;;;;;31.45;16.55;;;;;;;-1.55;79.27;97397.63;5050967;28;20049;-74
2021/01/16 00:35:31;;;;;;;37.78;18.05;;;;;;;-1.54;79.36;97403.56;5039149;28;20049;-74
2021/01/16 00:37:58;;;;;;;33.53;18.15;;;;;;;-1.56;79.07;97406.25;5028632;28;20120;-74
2021/01/16 00:40:26;;;;;;;31.98;17.08;;;;;;;-1.58;79.28;97397.03;5036917;28;20068;-74
2021/01/16 00:42:54;;;;;;;30.05;16.98;;;;;;;-1.62;78.95;97393.88;5055025;28;20520;-74
2021/01/16 00:45:23;;;;;;;35.45;17.60;;;;;;;-1.69;79.10;97395.28;5053863;28;20527;-74
2021/01/16 00:47:50;;;;;;;30.15;16.80;;;;;;;-1.73;79.09;97397.25;5051429;28;20473;-74
2021/01/16 00:50:19;;;;;;;31.85;16.48;;;;;;;-1.76;79.37;97396.69;5032254;28;20383;-74
2021/01/16 00:52:57;;;;;;;30.52;17.20;;;;;;;-1.74;79.34;97399.94;5055639;28;20033;-74
2021/01/16 00:55:24;;;;;;;32.30;17.35;;;;;;;-1.71;79.65;97397.97;5054977;28;20037;-74
2021/01/16 00:57:51;;;;;;;36.50;18.17;;;;;;;-1.67;79.34;97401.13;5055261;28;20486;-74
2021/01/16 01:00:20;;;;;;;31.85;17.58;;;;;;;-1.63;79.40;97397.38;5051733;28;20468;-74
2021/01/16 01:02:47;;;;;;;29.85;16.70;;;;;;;-1.63;79.27;97399.97;5053209;28;20052;-74
2021/01/16 01:05:19;;;;;;;32.85;17.10;;;;;;;-1.60;79.27;97402.28;5034964;28;20408;-74
2021/01/16 01:07:47;;;;;;;35.85;18.90;;;;;;;-1.59;79.21;97403.13;5026026;28;20076;-74
2021/01/16 01:10:17;;;;;;;33.03;17.60;;;;;;;-1.67;79.27;97401.13;5055524;28;20052;-74
2021/01/16 01:12:44;;;;;;;32.60;17.75;;;;;;;-1.67;78.97;97398.56;5054496;28;20045;-74
2021/01/16 01:15:10;;;;;;;33.20;18.77;;;;;;;-1.65;79.62;97406.97;5052812;28;20060;-74
2021/01/16 01:17:36;;;;;;;32.40;16.35;;;;;;;-1.61;79.46;97408.38;5052922;28;20498;-74
2021/01/16 01:20:04;;;;;;;31.90;17.42;;;;;;;-1.58;79.55;97407.31;5049495;28;20041;-74
2021/01/16 01:22:36;;;;;;;31.10;16.33;;;;;;;-1.57;79.46;97406.38;5054575;28;20094;-74
2021/01/16 01:25:05;;;;;;;34.05;16.77;;;;;;;-1.56;79.24;97402.88;5054262;28;20064;-74
2021/01/16 01:27:32;;;;;;;31.08;17.27;;;;;;;-1.57;79.28;97402.06;5037359;28;20048;-74
2021/01/16 01:29:59;;;;;;;32.63;16.08;;;;;;;-1.56;79.25;97405.44;5053874;28;20045;-74
2021/01/16 01:32:25;;;;;;;28.05;15.48;;;;;;;-1.54;79.27;97406.13;5051461;28;20033;-74
2021/01/16 01:34:51;;;;;;;30.33;14.82;;;;;;;-1.56;79.26;97400.28;5027590;28;20048;-74
2021/01/16 01:37:18;;;;;;;28.40;15.93;;;;;;;-1.59;79.23;97403.13;5050146;28;20061;-74
2021/01/16 01:39:44;;;;;;;32.08;17.20;;;;;;;-1.60;79.42;97406.63;5054184;28;20056;-74
2021/01/16 01:42:17;;;;;;;26.13;15.27;;;;;;;-1.61;79.39;97405.81;5054171;28;20500;-74
2021/01/16 01:44:45;;;;;;;29.83;15.70;;;;;;;-1.61;79.34;97399.84;5054416;28;20048;-74
2021/01/16 01:47:13;;;;;;;31.98;15.80;;;;;;;-1.60;79.43;97406.63;5051365;28;20048;-74
2021/01/16 01:49:41;;;;;;;30.58;15.82;;;;;;;-1.61;79.33;97410.94;5050028;28;20052;-74
2021/01/16 01:52:11;;;;;;;27.27;14.95;;;;;;;-1.61;79.14;97407.56;5051719;28;20055;-74
2021/01/16 01:54:37;;;;;;;29.15;15.18;;;;;;;-1.58;79.61;97409.88;5053530;28;20044;-74
2021/01/16 01:57:06;;;;;;;26.58;15.82;;;;;;;-1.56;79.24;97413.97;5035456;28;20068;-73
2021/01/16 01:59:37;;;;;;;27.27;15.45;;;;;;;-1.53;79.34;97416.31;5053095;28;20052;-74
2021/01/16 02:02:08;;;;;;;26.08;15.00;;;;;;;-1.49;79.46;97416.88;5053612;28;20370;-74
2021/01/16 02:04:36;;;;;;;29.80;15.77;;;;;;;-1.46;79.27;97420.03;5051684;28;20044;-73
2021/01/16 02:07:24;;;;;;;28.67;16.38;;;;;;;-1.41;79.39;97419.69;5051235;28;20041;-74
2021/01/16 02:09:51;;;;;;;28.40;15.90;;;;;;;-1.42;79.33;97418.06;5019755;28;20587;-74
2021/01/16 02:12:18;;;;;;;30.92;15.57;;;;;;;-1.40;79.42;97417.94;5049449;28;20033;-74
2021/01/16 02:14:53;;;;;;;25.27;14.63;;;;;;;-1.39;79.15;97417.81;5051669;28;20052;-74
2021/01/16 02:17:24;;;;;;;29.50;15.73;;;;;;;-1.40;79.03;97413.63;5050064;28;20037;-74
2021/01/16 02:20:08;;;;;;;27.63;15.70;;;;;;;-1.40;78.87;97405.09;5052324;28;20405;-75
2021/01/16 02:22:48;;;;;;;26.13;14.97;;;;;;;-1.39;78.93;97412.66;5052243;28;20049;-74
2021/01/16 02:25:17;;;;;;;30.52;15.68;;;;;;;-1.40;79.13;97407.66;5052774;28;20290;-74
2021/01/16 02:28:05;;;;;;;28.67;15.02;;;;;;;-1.41;79.06;97417.13;5052331;28;20053;-74
2021/01/16 02:30:33;;;;;;;27.65;14.48;;;;;;;-1.40;78.74;97407.66;5052486;28;20393;-74
2021/01/16 02:33:04;;;;;;;30.20;16.95;;;;;;;-1.42;79.22;97409.53;5052534;28;20056;-74
2021/01/16 02:35:32;;;;;;;31.52;16.90;;;;;;;-1.52;78.68;97406.84;5049075;28;20033;-74
2021/01/16 02:38:34;;;;;;;31.63;16.55;;;;;;;-1.56;78.69;97416.53;5052785;28;20450;-73
2021/01/16 02:41:10;;;;;;;31.40;16.70;;;;;;;-1.55;79.00;97402.75;5048564;28;20040;-74
2021/01/16 02:43:44;;;;;;;35.17;16.73;;;;;;;-1.53;78.95;97403.47;5049970;28;20374;-73
2021/01/16 02:46:27;;;;;;;26.77;15.43;;;;;;;-1.51;78.59;97403.31;5042315;28;20042;-74
2021/01/16 02:49:11;;;;;;;32.03;16.13;;;;;;;-1.52;78.88;97402.50;5038618;28;20049;-74
2021/01/16 02:51:55;;;;;;;28.17;16.13;;;;;;;-1.51;78.74;97406.72;5048657;28;20033;-74
2021/01/16 02:54:22;;;;;;;32.53;17.50;;;;;;;-1.52;79.12;97402.50;5053568;28;20508;-74
2021/01/16 02:56:49;;;;;;;33.10;17.40;;;;;;;-1.51;78.93;97406.72;5035244;28;20275;-74
2021/01/16 02:59:15;;;;;;;28.80;16.23;;;;;;;-1.50;78.88;97402.41;5050906;28;20929;-74
2021/01/16 03:01:42;;;;;;;31.38;16.63;;;;;;;-1.49;78.95;97404.03;5049667;28;20108;-75
2021/01/16 03:04:09;;;;;;;28.67;16.40;;;;;;;-1.50;78.59;97404.97;5049434;28;20044;-74
2021/01/16 03:06:43;;;;;;;28.30;16.05;;;;;;;-1.50;78.69;97405.78;5048308;28;20049;-74
2021/01/16 03:09:10;;;;;;;32.63;15.23;;;;;;;-1.50;78.70;97405.78;5052262;28;20048;-74
2021/01/16 03:11:36;;;;;;;28.40;16.08;;;;;;;-1.50;78.63;97402.41;5052605;28;20064;-74
2021/01/16 03:14:06;;;;;;;30.63;16.90;;;;;;;-1.52;78.67;97399.94;5051171;28;20049;-74
2021/01/16 03:16:37;;;;;;;30.00;17.02;;;;;;;-1.54;78.61;97404.38;5032192;28;20041;-74
2021/01/16 03:19:07;;;;;;;29.98;16.40;;;;;;;-1.55;78.72;97397.63;5052095;28;20047;-74
2021/01/16 03:21:38;;;;;;;32.22;17.98;;;;;;;-1.58;78.56;97400.41;5045906;28;20473;-74
2021/01/16 03:24:06;;;;;;;31.98;16.95;;;;;;;-1.59;78.56;97403.94;5048429;28;20103;-74
2021/01/16 03:26:32;;;;;;;30.35;16.15;;;;;;;-1.59;78.77;97403.13;5053164;28;20037;-73
2021/01/16 03:28:58;;;;;;;29.92;16.88;;;;;;;-1.58;78.77;97397.03;5050795;28;20041;-74
2021/01/16 03:31:24;;;;;;;31.83;16.50;;;;;;;-1.58;78.85;97392.69;5050180;28;20057;-74
2021/01/16 03:33:50;;;;;;;34.53;18.52;;;;;;;-1.65;78.35;97396.69;5053721;28;20037;-74
2021/01/16 03:36:17;;;;;;;32.78;18.27;;;;;;;-1.79;78.52;97395.16;5029412;28;20056;-74
2021/01/16 03:38:43;;;;;;;37.42;19.05;;;;;;;-1.85;79.12;97405.91;5052441;28;20041;-73
2021/01/16 03:41:09;;;;;;;34.95;18.48;;;;;;;-1.90;78.90;97401.13;5051063;28;20053;-73
2021/01/16 03:43:35;;;;;;;28.98;15.90;;;;;;;-1.88;79.14;97396.69;5050980;28;20075;-74
2021/01/16 03:46:01;;;;;;;30.42;17.15;;;;;;;-1.85;79.10;97395.63;5050514;28;20060;-74
2021/01/16 03:48:28;;;;;;;33.20;18.00;;;;;;;-1.81;79.00;97393.66;5051798;28;20045;-73
2021/01/16 03:50:55;;;;;;;33.90;17.77;;;;;;;-1.77;78.99;97395.03;5032549;28;20072;-74
2021/01/16 03:53:21;;;;;;;29.92;17.42;;;;;;;-1.74;78.86;97381.94;5055027;28;20040;-73
2021/01/16 03:55:47;;;;;;;33.55;18.02;;;;;;;-1.71;78.97;97390.25;5021372;28;20064;-73
2021/01/16 03:58:13;;;;;;;29.80;17.77;;;;;;;-1.70;79.00;97391.91;5055728;28;20060;-74
2021/01/16 04:00:39;;;;;;;31.60;17.60;;;;;;;-1.69;79.17;97396.09;5053970;28;20412;-74
2021/01/16 04:03:05;;;;;;;32.38;18.17;;;;;;;-1.69;79.17;97388.38;5053697;28;20076;-73
2021/01/16 04:05:32;;;;;;;30.75;17.52;;;;;;;-1.66;79.12;97398.44;5054342;28;20041;-74
2021/01/16 04:07:58;;;;;;;33.72;17.42;;;;;;;-1.64;78.93;97406.03;5051037;28;20049;-73
2021/01/16 04:10:24;;;;;;;31.08;17.30;;;;;;;-1.65;78.86;97402.63;5037739;28;20037;-73
2021/01/16 04:12:50;;;;;;;30.80;17.67;;;;;;;-1.61;78.86;97410.13;5054782;28;20424;-74
2021/01/16 04:15:16;;;;;;;31.85;17.25;;;;;;;-1.61;78.72;97418.66;5035351;28;20052;-74
2021/01/16 04:17:43;;;;;;;32.22;17.92;;;;;;;-1.61;78.79;97408.38;5054808;28;20382;-73
2021/01/16 04:20:09;;;;;;;36.05;18.30;;;;;;;-1.59;78.87;97418.56;5053139;28;20167;-73
2021/01/16 04:22:37;;;;;;;33.95;18.35;;;;;;;-1.59;78.96;97414.22;5016663;28;20057;-73
2021/01/16 04:25:06;;;;;;;33.63;18.27;;;;;;;-1.56;78.83;97413.97;5051107;28;20048;-74
2021/01/16 04:27:33;;;;;;;35.17;18.77;;;;;;;-1.59;78.65;97415.97;5056228;28;20508;-73
2021/01/16 04:30:00;;;;;;;32.05;17.77;;;;;;;-1.72;78.71;97413.50;5054409;28;20049;-73
2021/01/16 04:32:26;;;;;;;34.25;17.77;;;;;;;-1.78;78.43;97414.81;5055019;28;20044;-73
2021/01/16 04:34:53;;;;;;;33.58;18.33;;;;;;;-1.79;78.66;97414.91;5054066;28;20504;-74
2021/01/16 04:37:19;;;;;;;30.60;18.23;;;;;;;-1.77;78.72;97411.28;5053625;28;20064;-73
2021/01/16 04:39:46;;;;;;;35.05;18.50;;;;;;;-1.77;78.72;97408.72;5055808;28;20108;-74
2021/01/16 04:42:14;;;;;;;35.35;17.98;;;;;;;-1.79;78.53;97407.19;5055463;28;20044;-73
2021/01/16 04:44:43;;;;;;;34.60;19.02;;;;;;;-1.83;78.66;97411.75;5054111;28;20041;-74
2021/01/16 04:47:17;;;;;;;32.92;17.27;;;;;;;-1.80;78.87;97403.00;5037950;28;20396;-74
2021/01/16 04:49:44;;;;;;;32.67;17.70;;;;;;;-1.79;78.76;97394.34;5054687;28;20044;-73
2021/01/16 04:52:10;;;;;;;37.42;18.85;;;;;;;-1.77;78.91;97393.28;5044793;28;20040;-73
2021/01/16 04:54:39;;;;;;;28.88;16.92;;;;;;;-1.79;78.62;97392.59;5020840;28;20033;-74
2021/01/16 04:57:12;;;;;;;34.08;17.85;;;;;;;-1.79;79.05;97392.59;5054785;28;20040;-73
2021/01/16 04:59:38;;;;;;;31.70;17.40;;;;;;;-1.80;78.74;97390.97;5054914;28;20049;-73
2021/01/16 05:02:09;;;;;;;33.15;18.00;;;;;;;-1.79;78.52;97394.34;5049846;28;20049;-74
2021/01/16 05:04:39;;;;;;;33.33;18.17;;;;;;;-1.79;78.76;97389.19;5035128;28;20421;-74
2021/01/16 05:07:11;;;;;;;31.55;17.83;;;;;;;-1.78;78.72;97396.00;5053047;28;20052;-74
2021/01/16 05:09:41;;;;;;;36.67;19.23;;;;;;;-1.77;78.86;97388.13;5055241;28;20041;-74
2021/01/16 05:12:07;;;;;;;39.47;19.90;;;;;;;-1.76;78.69;97387.22;5054075;28;20045;-74
2021/01/16 05:15:00;;;;;;;33.63;18.23;;;;;;;-1.75;78.46;97388.84;5031534;28;20034;-74
2021/01/16 05:17:28;;;;;;;33.17;18.52;;;;;;;-1.75;78.77;97391.41;5046337;28;20049;-74
2021/01/16 05:19:55;;;;;;;34.40;18.70;;;;;;;-1.76;78.70;97392.38;5037908;28;20032;-74
2021/01/16 05:22:22;;;;;;;35.38;18.90;;;;;;;-1.78;78.36;97389.09;5050785;28;20049;-73
2021/01/16 05:24:48;;;;;;;35.13;18.75;;;;;;;-1.77;78.56;97390.72;5052982;28;20033;-74
2021/01/16 05:27:20;;;;;;;32.90;18.25;;;;;;;-1.77;78.67;97397.63;5053153;28;20470;-74
2021/01/16 05:29:46;;;;;;;34.78;18.15;;;;;;;-1.76;78.80;97396.69;5049590;28;20482;-74
2021/01/16 05:32:14;;;;;;;36.10;19.20;;;;;;;-1.79;78.38;97397.72;5049818;28;20105;-74
2021/01/16 05:34:40;;;;;;;32.05;17.45;;;;;;;-1.87;78.41;97395.75;5054392;28;20041;-74
2021/01/16 05:37:06;;;;;;;35.60;18.80;;;;;;;-1.88;78.30;97401.81;5052686;28;20037;-74
2021/01/16 05:39:33;;;;;;;32.97;18.02;;;;;;;-1.87;78.39;97397.50;5053555;28;20045;-74
2021/01/16 05:42:04;;;;;;;35.53;18.63;;;;;;;-1.88;78.58;97398.44;5051340;28;20127;-74
2021/01/16 05:44:31;;;;;;;31.98;17.17;;;;;;;-1.87;78.49;97402.63;5028516;28;20052;-74
2021/01/16 05:46:58;;;;;;;35.90;19.52;;;;;;;-1.87;78.36;97400.06;5042204;28;20041;-74
2021/01/16 05:49:26;;;;;;;32.13;17.77;;;;;;;-1.87;78.29;97400.91;5052966;28;20129;-74
2021/01/16 05:51:53;;;;;;;35.90;18.67;;;;;;;-1.87;78.25;97400.06;5043395;28;20057;-74
2021/01/16 05:54:20;;;;;;;30.85;17.38;;;;;;;-1.89;78.56;97404.50;5053358;28;20041;-74
2021/01/16 05:56:48;;;;;;;31.27;18.10;;;;;;;-1.89;78.49;97404.50;5054036;28;20060;-74
2021/01/16 05:59:17;;;;;;;32.88;18.35;;;;;;;-1.89;78.37;97399.34;5048230;28;20064;-74
2021/01/16 06:01:46;;;;;;;34.13;17.90;;;;;;;-1.89;78.28;97400.19;5053825;28;20057;-74
2021/01/16 06:04:19;;;;;;;30.55;17.98;;;;;;;-1.89;78.08;97391.66;5053258;28;20041;-74
2021/01/16 06:06:46;;;;;;;32.45;17.50;;;;;;;-1.89;78.16;97394.22;5052590;28;20378;-74
2021/01/16 06:09:20;;;;;;;32.22;18.13;;;;;;;-1.89;77.94;97386.50;5052906;28;20061;-74
2021/01/16 06:11:48;;;;;;;26.15;14.63;;;;;;;-1.88;78.03;97396.69;5035970;28;20045;-74
2021/01/16 06:14:15;;;;;;;29.95;17.98;;;;;;;-1.88;78.17;97388.16;5053185;28;20049;-74
2021/01/16 06:16:57;;;;;;;39.55;21.33;;;;;;;-1.89;78.52;97387.34;5049376;28;20391;-74
2021/01/16 06:19:25;;;;;;;34.78;19.02;;;;;;;-1.89;78.38;97392.50;5051342;28;20485;-74
2021/01/16 06:21:53;;;;;;;35.20;20.10;;;;;;;-1.91;78.20;97390.94;5045233;28;20048;-74
2021/01/16 06:24:23;;;;;;;32.30;18.88;;;;;;;-1.91;78.38;97384.06;5052564;28;20060;-73
2021/01/16 06:26:57;;;;;;;32.28;18.45;;;;;;;-1.90;78.34;97385.69;5041758;28;20040;-74
2021/01/16 06:29:28;;;;;;;32.15;17.95;;;;;;;-1.91;78.25;97386.63;5047345;28;20397;-74
2021/01/16 06:32:21;;;;;;;36.65;18.75;;;;;;;-1.89;78.49;97381.34;5051808;28;20044;-74
2021/01/16 06:35:19;;;;;;;33.80;18.15;;;;;;;-1.90;78.27;97379.75;5045285;28;20061;-74
2021/01/16 06:37:50;;;;;;;32.63;18.45;;;;;;;-1.89;78.49;97387.34;5026258;28;20512;-74
2021/01/16 06:40:31;;;;;;;36.00;18.17;;;;;;;-1.88;78.36;97383.00;5034746;28;20389;-74
2021/01/16 06:42:59;;;;;;;32.58;18.23;;;;;;;-1.87;78.55;97374.34;5044404;28;20501;-74
2021/01/16 06:45:28;;;;;;;36.78;18.88;;;;;;;-1.88;77.96;97377.88;5032385;28;20397;-74
2021/01/16 06:47:59;;;;;;;36.03;19.77;;;;;;;-1.94;77.91;97378.34;5052284;28;20405;-74
2021/01/16 06:50:27;;;;;;;29.40;16.27;;;;;;;-1.96;77.90;97375.06;5048256;28;20045;-74
2021/01/16 06:52:54;;;;;;;37.22;19.15;;;;;;;-2.01;77.99;97367.72;5048991;28;20056;-74
2021/01/16 06:55:21;;;;;;;30.80;17.48;;;;;;;-2.08;77.87;97371.66;5053332;28;20029;-73
2021/01/16 06:57:48;;;;;;;28.65;17.00;;;;;;;-2.09;78.16;97370.03;5051694;28;20055;-74
2021/01/16 07:00:15;;;;;;;29.88;17.48;;;;;;;-2.07;78.22;97358.69;5052383;28;20075;-74
2021/01/16 07:02:47;;;;;;;32.55;19.00;;;;;;;-2.05;78.25;97367.09;5025352;28;20037;-74
2021/01/16 07:05:16;;;;;;;33.90;17.80;;;;;;;-2.01;78.27;97360.00;5052656;28;20035;-74
2021/01/16 07:07:45;;;;;;;31.48;18.45;;;;;;;-1.98;78.47;97366.66;5048645;28;20037;-74
2021/01/16 07:10:12;;;;;;;31.85;18.00;;;;;;;-1.97;78.28;97368.28;5034715;28;20477;-74
2021/01/16 07:12:42;;;;;;;31.60;16.55;;;;;;;-1.96;78.30;97378.44;5052580;28;20404;-74
2021/01/16 07:15:10;;;;;;;33.17;17.92;;;;;;;-1.96;78.21;97380.19;5049064;28;20401;-74
2021/01/16 07:17:37;;;;;;;31.10;17.65;;;;;;;-1.97;77.93;97369.09;5050208;28;20079;-74
2021/01/16 07:20:06;;;;;;;32.33;17.08;;;;;;;-1.98;78.34;97374.34;5050211;28;20053;-74
2021/01/16 07:22:34;;;;;;;30.40;17.02;;;;;;;-1.99;77.90;97372.75;5047621;28;20049;-73
2021/01/16 07:25:05;;;;;;;32.67;16.85;;;;;;;-2.01;77.81;97377.19;5052268;28;20477;-74
2021/01/16 07:27:33;;;;;;;29.55;16.38;;;;;;;-2.03;78.09;97379.84;5056655;28;20032;-74
2021/01/16 07:30:08;;;;;;;30.27;17.23;;;;;;;-2.02;77.91;97385.81;5056723;28;20036;-74
2021/01/16 07:32:39;;;;;;;30.17;17.30;;;;;;;-2.05;78.04;97389.44;5033355;28;20045;-74
2021/01/16 07:35:11;;;;;;;29.55;17.15;;;;;;;-2.06;77.78;97385.22;5053559;28;20053;-74
2021/01/16 07:37:45;;;;;;;33.35;16.50;;;;;;;-2.05;77.89;97385.09;5054219;28;20401;-73
2021/01/16 07:40:20;;;;;;;28.10;16.77;;;;;;;-2.03;77.90;97392.72;5038350;28;20041;-73
2021/01/16 07:42:59;;;;;;;35.08;18.45;;;;;;;-2.01;78.22;97384.88;5056030;28;20036;-74
2021/01/16 07:45:29;;;;;;;33.17;17.90;;;;;;;-2.02;77.96;97386.63;5055002;28;20370;-74
2021/01/16 07:48:04;;;;;;;31.05;16.63;;;;;;;-2.02;78.05;97393.50;5055418;28;20055;-73
2021/01/16 07:50:36;;;;;;;35.08;17.95;;;;;;;-2.00;77.72;97395.03;5033331;28;20047;-74
2021/01/16 07:53:07;;;;;;;34.42;17.75;;;;;;;-1.97;77.92;97394.00;5054986;28;20378;-74
2021/01/16 07:55:35;;;;;;;32.72;17.83;;;;;;;-1.98;77.58;97392.34;5056186;28;20366;-74
2021/01/16 07:58:13;;;;;;;32.40;18.65;;;;;;;-2.01;77.61;97387.47;5055854;28;20072;-73
2021/01/16 08:00:44;;;;;;;37.28;20.65;;;;;;;-2.06;77.67;97390.34;5019641;28;20041;-74
2021/01/16 08:03:17;;;;;;;36.92;18.92;;;;;;;-2.10;77.37;97389.78;5056774;28;20037;-73
2021/01/16 08:06:23;;;;;;;37.83;19.70;;;;;;;-2.11;77.35;97384.75;5051554;28;20053;-74
2021/01/16 08:09:06;;;;;;;34.10;18.52;;;;;;;-2.10;77.58;97388.94;5037410;28;20393;-73
2021/01/16 08:11:34;;;;;;;32.90;18.35;;;;;;;-2.08;77.82;97381.94;5047263;28;20068;-74
2021/01/16 08:14:03;;;;;;;34.67;18.42;;;;;;;-2.04;77.66;97380.78;5050621;28;20057;-74
2021/01/16 08:16:29;;;;;;;31.83;18.20;;;;;;;-2.03;77.71;97390.13;5045785;28;20030;-74
2021/01/16 08:19:11;;;;;;;37.38;20.15;;;;;;;-1.98;77.64;97390.59;5050232;28;20060;-74
2021/01/16 08:21:51;;;;;;;32.92;18.92;;;;;;;-1.94;77.54;97383.47;5070069;28;20059;-74
2021/01/16 08:24:19;;;;;;;39.28;19.17;;;;;;;-1.88;77.58;97377.88;5065764;28;20059;-73
2021/01/16 08:27:00;;;;;;;34.80;18.60;;;;;;;-1.83;77.62;97365.47;5072166;28;20033;-74
2021/01/16 08:29:28;;;;;;;29.02;17.65;;;;;;;-1.78;77.64;97362.56;5056710;28;20051;-74
2021/01/16 08:32:07;;;;;;;32.22;17.60;;;;;;;-1.75;77.21;97368.28;5064655;28;20424;-74
2021/01/16 08:34:53;;;;;;;33.65;18.45;;;;;;;-1.73;76.84;97363.84;5061859;28;20052;-73
2021/01/16 08:37:49;;;;;;;34.95;18.35;;;;;;;-1.69;76.73;97367.81;5070796;28;20037;-75
2021/01/16 08:40:31;;;;;;;33.25;17.13;;;;;;;-1.78;76.29;97368.53;5055240;28;20036;-74
2021/01/16 08:42:58;;;;;;;33.47;18.27;;;;;;;-1.80;76.88;97364.44;5064882;28;20057;-74
2021/01/16 08:45:24;;;;;;;30.15;17.27;;;;;;;-1.74;77.48;97369.09;5071065;28;20392;-74
2021/01/16 08:47:58;;;;;;;34.13;19.60;;;;;;;-1.66;77.28;97361.59;5075892;28;20041;-73
2021/01/16 08:50:35;;;;;;;38.97;20.83;;;;;;;-1.64;75.98;97363.13;5071217;28;20032;-74
2021/01/16 08:53:20;;;;;;;36.10;19.67;;;;;;;-1.69;76.31;97359.28;5074129;28;20052;-74
2021/01/16 08:55:46;;;;;;;34.28;16.88;;;;;;;-1.70;76.81;97355.06;5063626;28;20473;-74
2021/01/16 08:58:13;;;;;;;30.80;17.20;;;;;;;-1.72;76.63;97360.34;5070050;28;20045;-74
2021/01/16 09:00:41;;;;;;;28.45;16.20;;;;;;;-1.66;76.47;97359.88;5066814;28;20052;-74
2021/01/16 09:03:09;;;;;;;27.40;15.55;;;;;;;-1.66;76.31;97359.03;5066609;28;20296;-74
2021/01/16 09:05:36;;;;;;;30.25;15.85;;;;;;;-1.60;76.62;97361.13;5066709;28;20052;-74
2021/01/16 09:08:20;;;;;;;28.13;16.63;;;;;;;-1.66;75.39;97361.59;5074699;28;20048;-74
2021/01/16 09:10:47;;;;;;;29.55;16.50;;;;;;;-1.69;76.33;97367.00;5059536;28;20052;-75
2021/01/16 09:13:25;;;;;;;28.70;16.63;;;;;;;-1.64;75.87;97362.31;5073782;28;20048;-74
2021/01/16 09:15:53;;;;;;;32.60;16.92;;;;;;;-1.67;76.10;97368.50;5070941;28;20045;-74
2021/01/16 09:18:19;;;;;;;29.52;16.30;;;;;;;-1.70;76.33;97379.03;5072344;28;20051;-73
2021/01/16 09:20:57;;;;;;;26.25;15.85;;;;;;;-1.75;76.14;97386.28;5056750;28;20067;-74
2021/01/16 09:23:27;;;;;;;30.88;16.23;;;;;;;-1.64;76.28;97388.84;5054515;28;20060;-73
2021/01/16 09:26:18;;;;;;;28.45;16.75;;;;;;;-1.68;75.63;97378.91;5053759;28;20409;-74
2021/01/16 09:28:49;;;;;;;27.00;15.20;;;;;;;-1.64;76.16;97381.16;5055392;28;20037;-74
2021/01/16 09:31:17;;;;;;;25.90;15.48;;;;;;;-1.55;76.30;97384.75;5047785;28;20049;-74
2021/01/16 09:33:45;;;;;;;27.90;16.77;;;;;;;-1.43;76.36;97393.25;5048283;28;20041;-74
2021/01/16 09:36:12;;;;;;;29.10;16.45;;;;;;;-1.42;76.08;97394.09;5050549;28;20044;-74
2021/01/16 09:38:39;;;;;;;25.92;14.73;;;;;;;-1.35;75.92;97396.06;5053715;28;20048;-74
2021/01/16 09:41:05;;;;;;;25.63;15.63;;;;;;;-1.27;75.91;97398.84;5053527;28;20052;-74
2021/01/16 09:43:41;;;;;;;27.15;15.07;;;;;;;-1.23;75.48;97396.88;5051659;28;20504;-73
2021/01/16 09:46:08;;;;;;;26.35;15.98;;;;;;;-1.20;75.58;97401.75;5048365;28;20047;-73
2021/01/16 09:48:39;;;;;;;27.13;16.33;;;;;;;-1.29;74.98;97400.72;5052290;28;20045;-74
2021/01/16 09:51:06;;;;;;;25.80;15.43;;;;;;;-1.33;75.09;97399.31;5049929;28;20040;-72
2021/01/16 09:53:32;;;;;;;25.13;13.25;;;;;;;-1.24;78.77;97393.47;5045547;28;20053;-73
2021/01/16 09:55:59;;;;;;;30.73;16.63;;;;;;;-0.79;79.28;97387.38;5052216;28;20053;-73
2021/01/16 09:58:30;;;;;;;29.42;16.25;;;;;;;-0.62;76.54;97378.28;5046716;28;20056;-74
2021/01/16 10:01:18;;;;;;;30.00;16.15;;;;;;;-0.56;74.13;97374.38;5053765;28;20396;-74
2021/01/16 10:03:46;;;;;;;30.42;15.82;;;;;;;-0.64;74.85;97370.66;5036097;28;20040;-73
2021/01/16 10:06:18;;;;;;;29.65;16.60;;;;;;;-0.59;75.06;97366.91;5050785;28;20044;-74
2021/01/16 10:08:49;;;;;;;31.75;17.75;;;;;;;-0.52;74.53;97362.91;5054119;28;20048;-73
2021/01/16 10:11:41;;;;;;;27.25;16.13;;;;;;;-0.55;72.29;97360.56;5053317;28;20036;-74
2021/01/16 10:14:17;;;;;;;29.77;17.48;;;;;;;-0.47;74.40;97356.41;5045417;28;20044;-74
2021/01/16 10:16:45;;;;;;;29.00;16.30;;;;;;;-0.34;74.50;97347.66;5025590;28;20033;-74
2021/01/16 10:19:12;;;;;;;30.40;17.33;;;;;;;-0.13;74.69;97340.72;5050615;28;20052;-74
2021/01/16 10:21:59;;;;;;;35.42;17.35;;;;;;;0.09;73.03;97326.84;5048977;28;20415;-74
2021/01/16 10:24:26;;;;;;;29.60;16.27;;;;;;;0.29;74.36;97322.53;5041604;28;20044;-74
2021/01/16 10:26:55;;;;;;;31.02;19.95;;;;;;;0.44;73.66;97323.00;5053180;28;20037;-74
2021/01/16 10:29:37;;;;;;;31.70;17.85;;;;;;;0.55;71.15;97316.94;5048843;28;20064;-74
2021/01/16 10:32:23;;;;;;;27.08;15.88;;;;;;;0.41;68.98;97307.78;5028345;28;20049;-74
2021/01/16 10:34:50;;;;;;;24.02;15.13;;;;;;;0.35;72.74;97310.88;5047704;28;20045;-74
2021/01/16 10:37:18;;;;;;;22.25;13.38;;;;;;;0.52;72.80;97306.84;5051242;28;20497;-74
2021/01/16 10:39:50;;;;;;;25.20;14.70;;;;;;;0.90;72.53;97293.16;5052644;28;20045;-74
2021/01/16 10:42:18;;;;;;;25.45;14.43;;;;;;;1.39;72.87;97298.28;5033230;28;20052;-74
2021/01/16 10:44:45;;;;;;;26.15;14.95;;;;;;;1.76;72.34;97293.13;5051923;28;20045;-74
2021/01/16 10:47:35;;;;;;;24.17;14.95;;;;;;;2.09;67.63;97290.16;5053269;28;20029;-74
2021/01/16 10:50:12;;;;;;;23.60;15.10;;;;;;;2.14;66.76;97282.78;5044386;28;20056;-74
2021/01/16 10:52:40;;;;;;;24.85;14.90;;;;;;;2.07;69.94;97286.91;5043716;28;20046;-74
2021/01/16 10:55:12;;;;;;;23.95;14.30;;;;;;;1.94;69.15;97274.31;5047537;28;20052;-74
2021/01/16 10:57:49;;;;;;;21.45;14.00;;;;;;;1.99;68.76;97277.25;5046928;28;20052;-74
2021/01/16 11:00:20;;;;;;;23.85;13.85;;;;;;;1.89;67.08;97272.16;5048066;28;20033;-74
2021/01/16 11:02:48;;;;;;;24.30;15.75;;;;;;;1.79;69.47;97261.84;5052382;28;20405;-74
2021/01/16 11:05:24;;;;;;;26.58;16.08;;;;;;;1.83;67.30;97263.19;5045006;28;20044;-74
2021/01/16 11:07:52;;;;;;;22.40;14.63;;;;;;;1.85;69.15;97273.41;5045699;28;20056;-74
2021/01/16 11:10:28;;;;;;;23.27;15.30;;;;;;;1.76;65.14;97253.53;5053534;28;20025;-74
2021/01/16 11:12:55;;;;;;;23.20;14.68;;;;;;;1.56;67.67;97276.88;5040082;28;20458;-74
2021/01/16 11:15:30;;;;;;;24.48;15.00;;;;;;;1.46;65.00;97252.84;5052570;28;20037;-74
2021/01/16 11:17:58;;;;;;;26.48;15.32;;;;;;;1.51;68.31;97260.16;5052856;28;20032;-74
2021/01/16 11:20:29;;;;;;;23.60;14.85;;;;;;;1.48;66.57;97263.03;5047537;28;20049;-74
2021/01/16 11:23:05;;;;;;;21.05;14.20;;;;;;;1.37;64.97;97258.84;5050963;28;20049;-74
2021/01/16 11:25:45;;;;;;;28.30;16.50;;;;;;;1.30;64.87;97245.69;5051743;28;20043;-74
2021/01/16 11:28:18;;;;;;;23.67;15.35;;;;;;;1.29;67.22;97258.72;5051163;28;20048;-74
2021/01/16 11:30:48;;;;;;;22.23;14.38;;;;;;;1.41;67.15;97255.84;5052786;28;20053;-73
2021/01/16 11:33:24;;;;;;;26.02;16.15;;;;;;;1.48;66.55;97240.59;5050882;28;20041;-74
2021/01/16 11:35:55;;;;;;;23.50;15.75;;;;;;;1.40;65.46;97240.47;5048189;28;20045;-74